createdAt,value
2023-05-22T00:00:44.310Z,32.20
2023-05-22T00:03:30.502Z,29.83
2023-05-22T00:06:16.050Z,38.47
2023-05-22T00:09:01.814Z,40.20
2023-05-22T00:11:49.201Z,34.75
2023-05-22T00:14:35.265Z,32.75
2023-05-22T00:17:21.529Z,37.42
2023-05-22T00:20:10.679Z,35.75
2023-05-22T00:22:57.897Z,35.60
2023-05-22T00:25:43.697Z,34.70
2023-05-22T00:28:30.744Z,30.40
2023-05-22T00:31:16.627Z,36.92
2023-05-22T00:34:02.464Z,37.22
2023-05-22T00:36:48.167Z,37.58
2023-05-22T00:39:33.850Z,35.97
2023-05-22T00:42:19.929Z,35.38
2023-05-22T00:45:09.843Z,31.10
2023-05-22T00:47:55.635Z,35.97
2023-05-22T00:50:41.868Z,33.05
2023-05-22T00:53:29.902Z,35.05
2023-05-22T00:56:15.750Z,33.70
2023-05-22T00:59:01.367Z,35.00
2023-05-22T01:01:49.063Z,33.40
2023-05-22T01:04:35.276Z,39.92
2023-05-22T01:07:21.572Z,34.10
2023-05-22T01:16:19.195Z,33.88
2023-05-22T01:19:21.922Z,36.67
2023-05-22T01:22:21.532Z,39.95
2023-05-22T01:25:33.189Z,39.17
2023-05-22T01:28:40.121Z,41.33
2023-05-22T01:31:31.369Z,43.85
2023-05-22T01:34:18.678Z,42.22
2023-05-22T01:37:06.159Z,49.63
2023-05-22T01:39:52.456Z,49.50
2023-05-22T01:42:41.267Z,50.40
2023-05-22T01:45:27.361Z,47.78
2023-05-22T01:48:14.731Z,46.67
2023-05-22T01:51:05.450Z,47.47
2023-05-22T01:54:01.338Z,46.53
2023-05-22T01:56:57.738Z,52.72
2023-05-22T01:59:47.610Z,51.25
2023-05-22T02:02:36.424Z,50.20
2023-05-22T02:05:24.956Z,48.22
2023-05-22T02:08:12.400Z,48.15
2023-05-22T02:11:02.181Z,46.67
2023-05-22T02:13:48.736Z,47.00
2023-05-22T02:16:35.047Z,51.22
2023-05-22T02:19:21.106Z,50.67
2023-05-22T02:22:09.924Z,52.72
2023-05-22T02:24:56.005Z,53.45
2023-05-22T02:27:42.852Z,62.00
2023-05-22T02:30:28.859Z,60.90
2023-05-22T02:33:18.044Z,68.72
2023-05-22T02:36:03.810Z,71.05
2023-05-22T02:38:51.214Z,64.47
2023-05-22T02:41:37.209Z,67.70
2023-05-22T02:44:22.758Z,73.55
2023-05-22T02:47:08.543Z,74.80
2023-05-22T02:49:54.214Z,85.47
2023-05-22T02:52:39.994Z,74.55
2023-05-22T02:55:27.408Z,75.75
2023-05-22T02:58:12.999Z,72.32
2023-05-22T03:00:59.875Z,66.40
2023-05-22T03:03:48.385Z,70.47
2023-05-22T03:06:35.243Z,76.97
2023-05-22T03:09:21.064Z,67.80
2023-05-22T03:12:09.800Z,69.55
2023-05-22T03:14:56.123Z,70.30
2023-05-22T03:17:42.422Z,68.22
2023-05-22T03:20:27.964Z,68.93
2023-05-22T03:23:14.771Z,71.80
2023-05-22T03:26:00.419Z,67.70
2023-05-22T03:28:51.930Z,77.43
2023-05-22T03:31:37.624Z,73.57
2023-05-22T03:34:27.433Z,73.05
2023-05-22T03:37:13.775Z,76.30
2023-05-22T03:39:59.922Z,79.88
2023-05-22T03:42:49.945Z,73.82
2023-05-22T03:45:38.445Z,75.13
2023-05-22T03:48:24.133Z,77.43
2023-05-22T03:51:10.949Z,65.55
2023-05-22T03:53:56.997Z,61.03
2023-05-22T03:56:43.225Z,68.53
2023-05-22T03:59:28.869Z,66.60
2023-05-22T04:02:17.407Z,62.90
2023-05-22T04:05:03.554Z,64.65
2023-05-22T04:07:49.478Z,62.22
2023-05-22T04:10:37.377Z,73.63
2023-05-22T04:13:23.659Z,56.30
2023-05-22T04:16:09.709Z,54.53
2023-05-22T04:18:58.057Z,57.67
2023-05-22T04:21:44.170Z,73.28
2023-05-22T04:24:30.127Z,60.42
2023-05-22T04:27:18.399Z,60.83
2023-05-22T04:30:06.430Z,96.70
2023-05-22T04:32:52.436Z,69.00
2023-05-22T04:35:40.724Z,66.38
2023-05-22T04:38:26.459Z,65.80
2023-05-22T04:41:13.497Z,65.90
2023-05-22T04:44:00.421Z,58.55
2023-05-22T04:46:46.226Z,61.05
2023-05-22T04:49:32.065Z,55.22
2023-05-22T04:52:19.278Z,47.28
2023-05-22T04:55:07.014Z,47.63
2023-05-22T04:57:52.810Z,43.92
2023-05-22T05:00:38.978Z,53.80
2023-05-22T05:03:26.744Z,49.55
2023-05-22T05:06:12.698Z,39.55
2023-05-22T05:08:59.979Z,34.55
2023-05-22T05:11:45.560Z,40.28
2023-05-22T05:14:31.416Z,45.60
2023-05-22T05:17:17.366Z,44.03
2023-05-22T05:20:07.059Z,42.85
2023-05-22T05:22:53.072Z,34.80
2023-05-22T05:25:40.997Z,36.22
2023-05-22T05:28:26.689Z,37.38
2023-05-22T05:31:13.803Z,34.55
2023-05-22T05:34:10.243Z,38.20
2023-05-22T05:37:14.462Z,36.25
2023-05-22T05:40:00.338Z,35.13
2023-05-22T05:42:47.596Z,37.20
2023-05-22T05:45:34.891Z,33.90
2023-05-22T05:48:20.866Z,33.40
2023-05-22T05:51:07.630Z,34.72
2023-05-22T05:53:57.362Z,33.95
2023-05-22T05:56:44.218Z,28.95
2023-05-22T05:59:32.179Z,28.73
2023-05-22T06:02:41.897Z,29.15
2023-05-22T06:05:40.992Z,30.15
2023-05-22T06:08:39.836Z,28.45
2023-05-22T06:11:25.713Z,24.23
2023-05-22T06:14:13.239Z,23.45
2023-05-22T06:17:00.386Z,24.65
2023-05-22T06:19:46.121Z,24.25
2023-05-22T06:22:33.539Z,21.88
2023-05-22T06:25:20.342Z,18.08
2023-05-22T06:28:07.351Z,20.90
2023-05-22T06:30:53.146Z,22.63
2023-05-22T06:33:43.323Z,22.25
2023-05-22T06:36:29.371Z,21.98
2023-05-22T06:39:14.992Z,21.23
2023-05-22T06:42:30.560Z,19.77
2023-05-22T06:45:37.345Z,18.98
2023-05-22T06:48:47.783Z,19.42
2023-05-22T06:51:39.976Z,18.95
2023-05-22T06:54:31.494Z,17.23
2023-05-22T06:57:17.335Z,20.40
2023-05-22T07:00:09.324Z,17.55
2023-05-22T07:03:13.424Z,16.98
2023-05-22T07:06:08.741Z,19.23
2023-05-22T07:08:54.568Z,19.98
2023-05-22T07:11:42.850Z,18.25
2023-05-22T07:14:28.297Z,16.88
2023-05-22T07:17:15.034Z,16.50
2023-05-22T07:20:08.560Z,16.08
2023-05-22T07:22:58.513Z,16.52
2023-05-22T07:25:44.787Z,16.30
2023-05-22T07:28:32.365Z,16.48
2023-05-22T07:31:23.960Z,15.70
2023-05-22T07:34:12.859Z,22.98
2023-05-22T07:36:58.553Z,15.13
2023-05-22T07:39:46.836Z,16.52
2023-05-22T07:42:34.190Z,15.23
2023-05-22T07:45:22.151Z,15.30
2023-05-22T07:48:08.070Z,13.95
2023-05-22T07:50:55.982Z,13.55
2023-05-22T07:53:42.629Z,14.60
2023-05-22T07:56:30.676Z,14.73
2023-05-22T07:59:19.559Z,14.88
2023-05-22T08:02:05.430Z,13.43
2023-05-22T08:04:51.189Z,15.68
2023-05-22T08:07:37.034Z,15.30
2023-05-22T08:10:22.702Z,13.43
2023-05-22T08:13:10.483Z,14.82
2023-05-22T08:16:00.207Z,14.32
2023-05-22T08:18:47.895Z,13.98
2023-05-22T08:21:34.436Z,14.13
2023-05-22T08:24:20.165Z,17.05
2023-05-22T08:27:06.518Z,16.38
2023-05-22T08:29:54.143Z,14.85
2023-05-22T08:32:39.966Z,16.00
2023-05-22T08:35:25.948Z,15.93
2023-05-22T08:38:11.652Z,16.20
2023-05-22T08:40:58.539Z,17.42
2023-05-22T08:43:44.141Z,21.42
2023-05-22T08:46:32.452Z,15.20
2023-05-22T08:49:23.979Z,14.57
2023-05-22T08:52:13.202Z,17.15
2023-05-22T08:55:06.301Z,17.35
2023-05-22T08:57:52.905Z,17.95
2023-05-22T09:00:38.922Z,18.15
2023-05-22T09:03:32.888Z,16.85
2023-05-22T09:06:19.171Z,16.10
2023-05-22T09:09:06.020Z,15.27
2023-05-22T09:11:54.300Z,16.33
2023-05-22T09:14:40.727Z,15.98
2023-05-22T09:17:27.430Z,17.50
2023-05-22T09:20:15.812Z,18.08
2023-05-22T09:23:02.604Z,14.20
2023-05-22T09:25:48.785Z,16.13
2023-05-22T09:28:35.614Z,16.70
2023-05-22T09:31:21.522Z,16.02
2023-05-22T09:34:10.205Z,14.57
2023-05-22T09:37:03.466Z,13.48
2023-05-22T09:39:52.791Z,19.85
2023-05-22T09:42:38.312Z,15.07
2023-05-22T09:45:24.255Z,14.32
2023-05-22T09:48:10.968Z,14.20
2023-05-22T09:50:59.806Z,14.00
2023-05-22T09:53:48.873Z,27.20
2023-05-22T09:56:39.674Z,24.77
2023-05-22T09:59:31.410Z,29.98
2023-05-22T10:05:07.082Z,27.65
2023-05-22T10:07:57.218Z,26.08
2023-05-22T10:10:50.305Z,25.15
2023-05-22T10:13:37.239Z,28.73
2023-05-22T10:16:25.899Z,25.20
2023-05-22T10:19:12.149Z,24.98
2023-05-22T10:22:00.234Z,25.35
2023-05-22T10:24:46.541Z,23.17
2023-05-22T10:27:33.919Z,24.80
2023-05-22T10:30:25.786Z,31.10
2023-05-22T10:33:38.843Z,25.80
2023-05-22T10:36:34.952Z,44.63
2023-05-22T10:39:37.401Z,21.90
2023-05-22T10:42:23.250Z,21.27
2023-05-22T10:45:11.333Z,19.58
2023-05-22T10:48:04.674Z,21.50
2023-05-22T10:50:52.938Z,21.40
2023-05-22T10:53:40.436Z,21.63
2023-05-22T10:56:33.231Z,22.52
2023-05-22T10:59:34.082Z,20.58
2023-05-22T11:05:36.768Z,20.85
2023-05-22T11:08:48.272Z,22.15
2023-05-22T11:11:33.890Z,20.40
2023-05-22T11:14:20.788Z,20.00
2023-05-22T11:17:06.952Z,24.83
2023-05-22T11:20:05.591Z,21.63
2023-05-22T11:22:56.637Z,19.63
2023-05-22T11:25:42.686Z,20.65
2023-05-22T11:28:30.371Z,20.02
2023-05-22T11:31:17.944Z,21.02
2023-05-22T11:34:04.006Z,23.02
2023-05-22T11:36:52.888Z,22.35
2023-05-22T11:39:38.793Z,18.98
2023-05-22T11:42:25.105Z,22.35
2023-05-22T11:45:11.663Z,22.98
2023-05-22T11:47:57.925Z,21.55
2023-05-22T11:50:44.183Z,23.67
2023-05-22T11:53:34.140Z,22.90
2023-05-22T11:56:24.203Z,22.73
2023-05-22T11:59:10.174Z,23.20
2023-05-22T12:01:55.872Z,23.15
2023-05-22T12:04:42.136Z,20.55
2023-05-22T12:07:28.125Z,20.60
2023-05-22T12:10:15.922Z,24.33
2023-05-22T12:13:02.064Z,21.45
2023-05-22T12:15:48.109Z,22.20
2023-05-22T12:18:37.056Z,23.33
2023-05-22T12:21:23.129Z,22.90
2023-05-22T12:24:10.562Z,19.60
2023-05-22T12:26:57.718Z,20.48
2023-05-22T12:29:43.814Z,22.20
2023-05-22T12:32:30.123Z,22.38
2023-05-22T12:35:16.714Z,23.88
2023-05-22T12:38:02.645Z,22.92
2023-05-22T12:40:49.152Z,21.55
2023-05-22T12:43:36.338Z,19.92
2023-05-22T12:46:22.091Z,21.88
2023-05-22T12:49:08.090Z,21.55
2023-05-22T12:51:54.006Z,25.25
2023-05-22T12:54:39.677Z,21.83
2023-05-22T12:57:25.593Z,19.90
2023-05-22T13:00:14.072Z,20.13
2023-05-22T13:03:00.502Z,17.08
2023-05-22T13:05:46.472Z,19.08
2023-05-22T13:08:32.398Z,13.00
2023-05-22T13:11:20.101Z,13.77
2023-05-22T13:14:06.158Z,15.02
2023-05-22T13:16:53.178Z,17.02
2023-05-22T13:19:38.924Z,18.30
2023-05-22T13:22:25.379Z,22.73
2023-05-22T13:25:12.965Z,14.93
2023-05-22T13:27:59.856Z,14.93
2023-05-22T13:30:45.552Z,14.98
2023-05-22T13:33:33.022Z,15.30
2023-05-22T13:36:18.822Z,15.27
2023-05-22T13:39:04.725Z,15.30
2023-05-22T13:41:52.083Z,10.52
2023-05-22T13:44:38.074Z,11.10
2023-05-22T13:47:26.205Z,13.10
2023-05-22T13:50:13.378Z,16.67
2023-05-22T13:52:59.369Z,20.95
2023-05-22T13:55:46.129Z,23.73
2023-05-22T13:58:31.942Z,30.17
2023-05-22T14:01:17.635Z,33.55
2023-05-22T14:04:03.422Z,37.15
2023-05-22T14:06:50.799Z,41.25
2023-05-22T14:09:36.645Z,40.90
2023-05-22T14:12:22.437Z,41.20
2023-05-22T14:15:09.156Z,38.33
2023-05-22T14:17:58.432Z,39.03
2023-05-22T14:20:44.654Z,34.40
2023-05-22T14:23:32.166Z,37.00
2023-05-22T14:26:18.042Z,38.05
2023-05-22T14:29:04.291Z,38.50
2023-05-22T14:31:52.031Z,40.10
2023-05-22T14:34:38.374Z,41.63
2023-05-22T14:37:24.620Z,32.92
2023-05-22T14:40:11.819Z,33.10
2023-05-22T14:42:57.748Z,34.97
2023-05-22T14:45:43.907Z,32.33
2023-05-22T14:48:29.599Z,29.42
2023-05-22T14:51:15.694Z,25.77
2023-05-22T14:54:01.625Z,25.45
2023-05-22T14:56:49.335Z,19.27
2023-05-22T14:59:35.547Z,12.10
2023-05-22T15:05:08.589Z,10.38
2023-05-22T15:07:58.398Z,13.82
2023-05-22T15:10:45.009Z,13.38
2023-05-22T15:13:32.389Z,10.98
2023-05-22T15:16:18.240Z,9.40
2023-05-22T15:19:04.806Z,6.78
2023-05-22T15:21:50.962Z,10.02
2023-05-22T15:24:37.019Z,6.70
2023-05-22T15:27:22.631Z,6.15
2023-05-22T15:30:10.386Z,8.15
2023-05-22T15:32:56.542Z,6.60
2023-05-22T15:35:44.266Z,7.38
2023-05-22T15:38:29.888Z,7.43
2023-05-22T15:41:15.961Z,9.07
2023-05-22T15:44:02.325Z,5.95
2023-05-22T15:46:49.750Z,5.50
2023-05-22T15:49:35.689Z,5.65
2023-05-22T15:52:24.255Z,5.53
2023-05-22T15:55:10.526Z,7.70
2023-05-22T15:57:58.655Z,9.77
2023-05-22T16:00:44.837Z,7.25
2023-05-22T16:03:32.236Z,6.13
2023-05-22T16:06:17.873Z,5.82
2023-05-22T16:09:03.999Z,4.68
2023-05-22T16:11:49.838Z,3.67
2023-05-22T16:14:35.809Z,5.15
2023-05-22T16:17:21.875Z,5.75
2023-05-22T16:20:09.916Z,6.35
2023-05-22T16:22:55.710Z,4.57
2023-05-22T16:25:41.669Z,4.07
2023-05-22T16:28:27.488Z,3.40
2023-05-22T16:31:17.037Z,3.08
2023-05-22T16:34:05.865Z,2.50
2023-05-22T16:36:52.799Z,2.47
2023-05-22T16:39:41.249Z,3.45
2023-05-22T16:42:27.412Z,2.65
2023-05-22T16:45:13.330Z,4.25
2023-05-22T16:47:59.398Z,2.60
2023-05-22T16:50:46.644Z,2.75
2023-05-22T16:53:35.549Z,5.30
2023-05-22T16:56:22.775Z,5.30
2023-05-22T16:59:09.012Z,3.58
2023-05-22T17:01:55.221Z,2.80
2023-05-22T17:04:41.203Z,3.85
2023-05-22T17:07:27.008Z,2.63
2023-05-22T17:10:14.533Z,3.17
2023-05-22T17:13:00.567Z,3.03
2023-05-22T17:15:47.461Z,3.67
2023-05-22T17:18:33.681Z,3.53
2023-05-22T17:21:20.546Z,3.45
2023-05-22T17:24:11.178Z,3.30
2023-05-22T17:27:00.198Z,3.05
2023-05-22T17:29:46.089Z,3.08
2023-05-22T17:32:32.179Z,3.95
2023-05-22T17:35:18.412Z,4.07
2023-05-22T17:38:04.521Z,3.50
2023-05-22T17:40:51.806Z,2.92
2023-05-22T17:43:39.838Z,3.90
2023-05-22T17:46:26.611Z,4.45
2023-05-22T17:49:12.528Z,3.65
2023-05-22T17:51:58.776Z,4.30
2023-05-22T17:54:44.665Z,3.33
2023-05-22T17:57:32.112Z,4.18
2023-05-22T18:00:20.136Z,8.23
2023-05-22T18:03:06.972Z,7.18
2023-05-22T18:05:53.253Z,5.68
2023-05-22T18:08:40.044Z,6.32
2023-05-22T18:11:26.139Z,4.47
2023-05-22T18:14:12.046Z,6.88
2023-05-22T18:16:59.245Z,4.28
2023-05-22T18:19:44.857Z,7.53
2023-05-22T18:22:31.123Z,6.32
2023-05-22T18:25:16.819Z,5.80
2023-05-22T18:28:02.743Z,6.97
2023-05-22T18:30:50.792Z,5.70
2023-05-22T18:33:39.282Z,5.32
2023-05-22T18:36:24.915Z,5.72
2023-05-22T18:39:11.578Z,3.30
2023-05-22T18:41:58.564Z,4.68
2023-05-22T18:44:44.444Z,4.13
2023-05-22T18:47:31.081Z,11.65
2023-05-22T18:50:18.393Z,4.60
2023-05-22T18:53:04.091Z,7.10
2023-05-22T18:55:50.098Z,7.10
2023-05-22T18:58:41.254Z,6.18
2023-05-22T19:01:27.170Z,4.65
2023-05-22T19:04:13.216Z,4.88
2023-05-22T19:07:00.642Z,6.15
2023-05-22T19:09:46.338Z,8.88
2023-05-22T19:12:33.002Z,7.05
2023-05-22T19:15:19.233Z,7.13
2023-05-22T19:18:08.822Z,6.25
2023-05-22T19:20:54.734Z,6.72
2023-05-22T19:23:42.983Z,8.57
2023-05-22T19:26:28.665Z,9.07
2023-05-22T19:29:16.578Z,5.75
2023-05-22T19:32:02.658Z,8.13
2023-05-22T19:34:49.157Z,9.07
2023-05-22T19:37:35.152Z,7.13
2023-05-22T19:40:22.690Z,10.57
2023-05-22T19:43:08.767Z,10.00
2023-05-22T19:45:55.539Z,8.73
2023-05-22T19:48:41.453Z,9.50
2023-05-22T19:51:27.935Z,7.97
2023-05-22T19:54:13.611Z,10.63
2023-05-22T19:57:01.054Z,9.95
2023-05-22T19:59:46.898Z,9.30
2023-05-22T20:02:33.215Z,10.00
2023-05-22T20:05:19.206Z,9.93
2023-05-22T20:08:05.867Z,10.63
2023-05-22T20:10:51.774Z,10.15
2023-05-22T20:13:39.285Z,10.43
2023-05-22T20:16:28.406Z,11.10
2023-05-22T20:19:15.156Z,11.85
2023-05-22T20:22:01.294Z,12.02
2023-05-22T20:24:47.338Z,11.80
2023-05-22T20:27:33.236Z,12.98
2023-05-22T20:30:20.543Z,12.35
2023-05-22T20:33:06.602Z,10.60
2023-05-22T20:35:53.349Z,13.27
2023-05-22T20:38:42.671Z,12.50
2023-05-22T20:41:31.742Z,14.75
2023-05-22T20:44:18.432Z,13.18
2023-05-22T20:47:06.263Z,15.27
2023-05-22T20:49:52.094Z,15.05
2023-05-22T20:52:38.312Z,19.98
2023-05-22T20:55:25.441Z,21.25
2023-05-22T20:58:14.864Z,21.23
2023-05-22T21:01:01.539Z,15.48
2023-05-22T21:03:51.431Z,17.75
2023-05-22T21:06:37.134Z,16.42
2023-05-22T21:09:23.062Z,20.05
2023-05-22T21:12:09.057Z,17.45
2023-05-22T21:14:54.817Z,17.15
2023-05-22T21:17:40.874Z,19.10
2023-05-22T21:20:28.391Z,22.23
2023-05-22T21:23:14.183Z,15.48
2023-05-22T21:26:00.421Z,11.15
2023-05-22T21:28:46.120Z,5.95
2023-05-22T21:31:34.542Z,5.18
2023-05-22T21:34:21.326Z,5.32
2023-05-22T21:37:09.107Z,5.90
2023-05-22T21:39:54.954Z,5.03
2023-05-22T21:42:46.457Z,8.32
2023-05-22T21:45:33.352Z,7.50
2023-05-22T21:48:18.963Z,6.05
2023-05-22T21:51:05.334Z,6.20
2023-05-22T21:53:52.331Z,6.93
2023-05-22T21:56:38.661Z,6.38
2023-05-22T21:59:24.451Z,9.32
2023-05-22T22:02:10.165Z,6.85
2023-05-22T22:04:55.980Z,9.00
2023-05-22T22:07:42.002Z,8.70
2023-05-22T22:10:29.304Z,7.35
2023-05-22T22:13:15.221Z,9.50
2023-05-22T22:16:01.200Z,8.73
2023-05-22T22:18:49.127Z,9.05
2023-05-22T22:21:35.296Z,8.02
2023-05-22T22:24:21.665Z,7.88
2023-05-22T22:27:08.775Z,8.48
2023-05-22T22:29:54.818Z,7.68
2023-05-22T22:32:41.375Z,10.93
2023-05-22T22:35:26.845Z,6.93
2023-05-22T22:38:12.501Z,10.15
2023-05-22T22:40:58.332Z,9.07
2023-05-22T22:43:45.383Z,8.93
2023-05-22T22:46:32.203Z,7.93
2023-05-22T22:49:21.662Z,10.00
2023-05-22T22:52:07.576Z,8.63
2023-05-22T22:54:53.620Z,13.23
2023-05-22T22:57:39.533Z,12.18
2023-05-22T23:00:26.430Z,9.70
2023-05-22T23:03:12.436Z,11.38
2023-05-22T23:05:58.081Z,11.15
2023-05-22T23:08:43.940Z,12.57
2023-05-22T23:11:37.474Z,11.15
2023-05-22T23:14:24.874Z,9.40
2023-05-22T23:17:12.129Z,11.25
2023-05-22T23:19:57.694Z,10.32
2023-05-22T23:22:43.479Z,11.65
2023-05-22T23:25:29.281Z,12.35
2023-05-22T23:28:15.180Z,12.48
2023-05-22T23:31:01.314Z,11.63
2023-05-22T23:33:48.440Z,15.32
2023-05-22T23:36:34.197Z,11.07
2023-05-22T23:39:19.906Z,16.00
2023-05-22T23:42:06.439Z,12.20
2023-05-22T23:44:52.610Z,11.57
2023-05-22T23:47:38.310Z,13.10
2023-05-22T23:50:25.551Z,14.57
2023-05-22T23:53:11.551Z,18.23
2023-05-22T23:55:59.669Z,14.18
2023-05-22T23:58:45.674Z,13.18
